createdAt,value
2017-08-03T00:00:32.439Z,1010.57
2017-08-03T00:01:44.795Z,1010.53
2017-08-03T00:02:57.062Z,1010.59
2017-08-03T00:04:09.602Z,1010.59
2017-08-03T00:05:21.848Z,1010.62
2017-08-03T00:06:34.174Z,1010.68
2017-08-03T00:07:46.765Z,1010.64
2017-08-03T00:08:59.364Z,1010.64
2017-08-03T00:10:11.913Z,1010.64
2017-08-03T00:11:24.488Z,1010.63
2017-08-03T00:12:37.121Z,1010.61
2017-08-03T00:13:49.752Z,1010.63
2017-08-03T00:15:02.346Z,1010.62
2017-08-03T00:16:14.635Z,1010.58
2017-08-03T00:17:27.284Z,1010.56
2017-08-03T00:18:39.910Z,1010.57
2017-08-03T00:19:51.889Z,1010.52
2017-08-03T00:21:04.426Z,1010.56
2017-08-03T00:22:16.694Z,1010.53
2017-08-03T00:23:28.664Z,1010.55
2017-08-03T00:24:40.993Z,1010.49
2017-08-03T00:25:53.596Z,1010.47
2017-08-03T00:27:05.573Z,1010.48
2017-08-03T00:28:18.080Z,1010.44
2017-08-03T00:29:30.690Z,1010.39
2017-08-03T00:30:42.990Z,1010.36
2017-08-03T00:31:55.600Z,1010.31
2017-08-03T00:33:08.184Z,1010.29
2017-08-03T00:34:20.799Z,1010.28
2017-08-03T00:35:33.374Z,1010.25
2017-08-03T00:36:45.639Z,1010.23
2017-08-03T00:37:57.612Z,1010.2
2017-08-03T00:39:10.181Z,1010.11
2017-08-03T00:40:22.506Z,1010.13
2017-08-03T00:41:35.080Z,1010.09
2017-08-03T00:42:47.694Z,1010.11
2017-08-03T00:44:00.241Z,1010.14
2017-08-03T00:45:12.536Z,1010.11
2017-08-03T00:46:25.172Z,1010.08
2017-08-03T00:47:37.785Z,1010.07
2017-08-03T00:48:50.368Z,1010.07
2017-08-03T00:50:02.973Z,1010.03
2017-08-03T00:51:15.296Z,1010.02
2017-08-03T00:52:27.864Z,1010
2017-08-03T00:53:40.465Z,1010.01
2017-08-03T00:54:53.019Z,1010.02
2017-08-03T00:56:05.329Z,1010.04
2017-08-03T00:57:17.571Z,1010.01
2017-08-03T00:58:29.818Z,1009.97
2017-08-03T00:59:42.130Z,1009.98
2017-08-03T01:00:54.735Z,1009.99
2017-08-03T01:02:07.036Z,1009.98
2017-08-03T01:03:19.362Z,1009.96
2017-08-03T01:04:31.964Z,1009.98
2017-08-03T01:05:44.242Z,1009.97
2017-08-03T01:06:56.214Z,1010.05
2017-08-03T01:08:08.442Z,1010.04
2017-08-03T01:09:20.756Z,1010
2017-08-03T01:10:32.661Z,1009.9
2017-08-03T01:11:45.240Z,1009.88
2017-08-03T01:12:57.868Z,1009.86
2017-08-03T01:14:10.446Z,1009.82
2017-08-03T01:15:23.062Z,1009.84
2017-08-03T01:16:35.732Z,1009.81
2017-08-03T01:17:48.380Z,1009.83
2017-08-03T01:19:00.930Z,1009.79
2017-08-03T01:20:13.494Z,1009.8
2017-08-03T01:21:26.082Z,1009.79
2017-08-03T01:22:38.041Z,1009.79
2017-08-03T01:23:50.282Z,1009.77
2017-08-03T01:25:02.826Z,1009.76
2017-08-03T01:26:15.152Z,1009.72
2017-08-03T01:27:28.036Z,1009.72
2017-08-03T01:28:40.620Z,1009.68
2017-08-03T01:29:52.921Z,1009.69
2017-08-03T01:31:05.531Z,1009.71
2017-08-03T01:32:18.182Z,1009.74
2017-08-03T01:33:30.729Z,1009.79
2017-08-03T01:34:43.020Z,1009.83
2017-08-03T01:35:55.332Z,1009.78
2017-08-03T01:37:07.894Z,1009.78
2017-08-03T01:38:20.537Z,1009.78
2017-08-03T01:39:33.079Z,1009.85
2017-08-03T01:40:45.734Z,1009.89
2017-08-03T01:41:58.320Z,1009.92
2017-08-03T01:43:10.645Z,1009.95
2017-08-03T01:44:23.516Z,1010
2017-08-03T01:45:35.784Z,1009.9
2017-08-03T01:46:48.365Z,1009.92
2017-08-03T01:48:00.635Z,1009.89
2017-08-03T01:49:13.234Z,1009.89
2017-08-03T01:50:25.843Z,1009.85
2017-08-03T01:51:37.565Z,1009.87
2017-08-03T01:52:49.858Z,1009.91
2017-08-03T01:54:02.394Z,1009.88
2017-08-03T01:55:14.956Z,1009.86
2017-08-03T01:56:27.609Z,1009.82
2017-08-03T01:57:40.197Z,1009.79
2017-08-03T01:58:52.739Z,1009.72
2017-08-03T02:00:04.647Z,1009.79
2017-08-03T02:01:17.290Z,1009.79
2017-08-03T02:02:29.877Z,1009.78
2017-08-03T02:03:42.197Z,1009.71
2017-08-03T02:04:54.534Z,1009.64
2017-08-03T02:06:06.762Z,1009.5
2017-08-03T02:07:19.034Z,1009.51
2017-08-03T02:08:31.314Z,1009.59
2017-08-03T02:09:43.908Z,1009.62
2017-08-03T02:10:56.503Z,1009.64
2017-08-03T02:12:08.794Z,1009.69
2017-08-03T02:13:21.375Z,1009.64
2017-08-03T02:14:33.716Z,1009.59
2017-08-03T02:15:46.058Z,1009.58
2017-08-03T02:16:58.343Z,1009.57
2017-08-03T02:18:10.981Z,1009.59
2017-08-03T02:19:23.350Z,1009.55
2017-08-03T02:20:35.946Z,1009.56
2017-08-03T02:21:48.792Z,1009.57
2017-08-03T02:23:01.021Z,1009.61
2017-08-03T02:24:13.683Z,1009.6
2017-08-03T02:25:25.701Z,1009.63
2017-08-03T02:26:37.693Z,1009.62
2017-08-03T02:27:50.318Z,1009.62
2017-08-03T02:29:02.886Z,1009.62
2017-08-03T02:30:15.442Z,1009.62
2017-08-03T02:31:27.734Z,1009.65
2017-08-03T02:32:40.255Z,1009.65
2017-08-03T02:33:52.859Z,1009.64
2017-08-03T02:35:05.509Z,1009.61
2017-08-03T02:36:18.060Z,1009.61
2017-08-03T02:37:30.313Z,1009.65
2017-08-03T02:38:42.935Z,1009.67
2017-08-03T02:39:55.499Z,1009.68
2017-08-03T02:41:07.801Z,1009.67
2017-08-03T02:42:20.432Z,1009.54
2017-08-03T02:43:32.973Z,1009.57
2017-08-03T02:44:45.614Z,1009.52
2017-08-03T02:45:57.840Z,1009.49
2017-08-03T02:47:10.481Z,1009.56
2017-08-03T02:48:23.169Z,1009.49
2017-08-03T02:49:35.442Z,1009.51
2017-08-03T02:50:48.054Z,1009.49
2017-08-03T02:52:00.645Z,1009.5
2017-08-03T02:53:13.279Z,1009.49
2017-08-03T02:54:25.531Z,1009.47
2017-08-03T02:55:38.164Z,1009.4
2017-08-03T02:56:50.433Z,1009.39
2017-08-03T02:58:03.002Z,1009.4
2017-08-03T02:59:14.934Z,1009.41
2017-08-03T03:00:27.211Z,1009.35
2017-08-03T03:01:39.750Z,1009.37
2017-08-03T03:02:52.374Z,1009.36
2017-08-03T03:04:04.998Z,1009.4
2017-08-03T03:05:17.275Z,1009.43
2017-08-03T03:06:29.866Z,1009.43
2017-08-03T03:07:42.486Z,1009.49
2017-08-03T03:08:55.104Z,1009.48
2017-08-03T03:10:07.728Z,1009.49
2017-08-03T03:11:20.318Z,1009.46
2017-08-03T03:12:32.919Z,1009.47
2017-08-03T03:13:45.265Z,1009.46
2017-08-03T03:14:57.836Z,1009.49
2017-08-03T03:16:10.708Z,1009.48
2017-08-03T03:17:23.072Z,1009.42
2017-08-03T03:18:35.669Z,1009.34
2017-08-03T03:19:48.166Z,1009.3
2017-08-03T03:21:00.659Z,1009.19
2017-08-03T03:22:13.180Z,1009.16
2017-08-03T03:23:25.457Z,1009.12
2017-08-03T03:24:38.115Z,1009.17
2017-08-03T03:25:50.719Z,1009.16
2017-08-03T03:27:03.289Z,1009.17
2017-08-03T03:28:15.591Z,1009.21
2017-08-03T03:29:28.163Z,1009.21
2017-08-03T03:30:40.801Z,1009.17
2017-08-03T03:31:53.405Z,1009.19
2017-08-03T03:33:06.011Z,1009.25
2017-08-03T03:34:18.607Z,1009.28
2017-08-03T03:35:31.159Z,1009.27
2017-08-03T03:36:43.488Z,1009.28
2017-08-03T03:37:55.451Z,1009.28
2017-08-03T03:39:07.766Z,1009.28
2017-08-03T03:40:19.756Z,1009.21
2017-08-03T03:41:31.816Z,1009.21
2017-08-03T03:42:44.402Z,1009.22
2017-08-03T03:43:56.964Z,1009.16
2017-08-03T03:45:09.489Z,1009.16
2017-08-03T03:46:22.061Z,1009.21
2017-08-03T03:47:34.438Z,1009.21
2017-08-03T03:48:46.995Z,1009.25
2017-08-03T03:49:59.012Z,1009.33
2017-08-03T03:51:11.575Z,1009.31
2017-08-03T03:52:23.878Z,1009.25
2017-08-03T03:53:36.580Z,1009.24
2017-08-03T03:54:48.571Z,1009.09
2017-08-03T03:56:00.845Z,1009.06
2017-08-03T03:57:13.394Z,1008.94
2017-08-03T03:58:25.665Z,1008.91
2017-08-03T03:59:38.539Z,1008.86
2017-08-03T04:00:50.867Z,1008.87
2017-08-03T04:02:03.145Z,1008.93
2017-08-03T04:03:15.745Z,1009.03
2017-08-03T04:04:28.389Z,1009.06
2017-08-03T04:05:40.409Z,1009
2017-08-03T04:06:52.679Z,1009
2017-08-03T04:08:05.202Z,1008.98
2017-08-03T04:09:17.507Z,1009.01
2017-08-03T04:10:30.092Z,1009.05
2017-08-03T04:11:42.362Z,1009
2017-08-03T04:12:54.634Z,1008.98
2017-08-03T04:14:07.216Z,1009.01
2017-08-03T04:15:19.787Z,1008.99
2017-08-03T04:16:32.087Z,1008.95
2017-08-03T04:17:44.381Z,1008.95
2017-08-03T04:18:56.969Z,1008.96
2017-08-03T04:20:09.512Z,1008.93
2017-08-03T04:21:22.306Z,1008.94
2017-08-03T04:22:34.642Z,1009.02
2017-08-03T04:23:46.972Z,1009.09
2017-08-03T04:24:59.274Z,1009.06
2017-08-03T04:26:11.828Z,1009.08
2017-08-03T04:27:24.121Z,1009.1
2017-08-03T04:28:36.474Z,1009.08
2017-08-03T04:29:48.978Z,1009.11
2017-08-03T04:31:01.604Z,1009.19
2017-08-03T04:32:13.949Z,1009.2
2017-08-03T04:33:26.195Z,1009.14
2017-08-03T04:34:38.811Z,1009.12
2017-08-03T04:35:51.362Z,1009.05
2017-08-03T04:37:03.359Z,1009.02
2017-08-03T04:38:15.688Z,1009.02
2017-08-03T04:39:28.294Z,1008.95
2017-08-03T04:40:40.850Z,1008.9
2017-08-03T04:41:53.086Z,1008.87
2017-08-03T04:43:05.669Z,1008.9
2017-08-03T04:44:18.283Z,1008.92
2017-08-03T04:45:30.852Z,1008.93
2017-08-03T04:46:43.125Z,1008.93
2017-08-03T04:47:55.764Z,1008.9
2017-08-03T04:49:07.762Z,1008.91
2017-08-03T04:50:20.388Z,1008.9
2017-08-03T04:51:32.670Z,1008.86
2017-08-03T04:52:44.885Z,1008.84
2017-08-03T04:53:57.211Z,1008.78
2017-08-03T04:55:09.845Z,1008.81
2017-08-03T04:56:21.848Z,1008.73
2017-08-03T04:57:34.484Z,1008.65
2017-08-03T04:58:47.021Z,1008.58
2017-08-03T04:59:59.555Z,1008.47
2017-08-03T05:01:12.197Z,1008.46
2017-08-03T05:02:24.534Z,1008.41
2017-08-03T05:03:36.829Z,1008.42
2017-08-03T05:04:49.084Z,1008.43
2017-08-03T05:06:01.733Z,1008.51
2017-08-03T05:07:14.300Z,1008.52
2017-08-03T05:08:26.925Z,1008.57
2017-08-03T05:09:39.167Z,1008.61
2017-08-03T05:10:51.763Z,1008.61
2017-08-03T05:12:04.041Z,1008.59
2017-08-03T05:13:16.611Z,1008.61
2017-08-03T05:14:28.858Z,1008.59
2017-08-03T05:15:41.154Z,1008.59
2017-08-03T05:16:53.367Z,1008.62
2017-08-03T05:18:05.602Z,1008.56
2017-08-03T05:19:17.868Z,1008.48
2017-08-03T05:20:30.481Z,1008.4
2017-08-03T05:21:43.127Z,1008.39
2017-08-03T05:22:55.728Z,1008.42
2017-08-03T05:24:08.024Z,1008.51
2017-08-03T05:25:20.565Z,1008.53
2017-08-03T05:26:33.164Z,1008.48
2017-08-03T05:27:45.463Z,1008.54
2017-08-03T05:28:58.106Z,1008.59
2017-08-03T05:30:10.681Z,1008.61
2017-08-03T05:31:22.693Z,1008.47
2017-08-03T05:32:35.257Z,1008.49
2017-08-03T05:33:47.534Z,1008.49
2017-08-03T05:34:59.760Z,1008.53
2017-08-03T05:36:12.333Z,1008.51
2017-08-03T05:37:24.915Z,1008.45
2017-08-03T05:38:37.581Z,1008.45
2017-08-03T05:39:49.855Z,1008.5
2017-08-03T05:41:02.468Z,1008.5
2017-08-03T05:42:14.758Z,1008.58
2017-08-03T05:43:27.657Z,1008.64
2017-08-03T05:44:39.960Z,1008.7
2017-08-03T05:45:51.968Z,1008.65
2017-08-03T05:47:04.252Z,1008.53
2017-08-03T05:48:16.541Z,1008.43
2017-08-03T05:49:28.862Z,1008.37
2017-08-03T05:50:41.159Z,1008.37
2017-08-03T05:51:53.431Z,1008.47
2017-08-03T05:53:05.648Z,1008.46
2017-08-03T05:54:18.272Z,1008.44
2017-08-03T05:55:30.893Z,1008.5
2017-08-03T05:56:43.532Z,1008.52
2017-08-03T05:57:55.767Z,1008.58
2017-08-03T05:59:08.631Z,1008.58
2017-08-03T06:00:21.223Z,1008.5
2017-08-03T06:01:33.844Z,1008.45
2017-08-03T06:02:46.500Z,1008.41
2017-08-03T06:03:59.083Z,1008.33
2017-08-03T06:05:11.708Z,1008.32
2017-08-03T06:06:23.993Z,1008.28
2017-08-03T06:07:36.548Z,1008.3
2017-08-03T06:08:48.877Z,1008.28
2017-08-03T06:10:00.880Z,1008.23
2017-08-03T06:11:13.167Z,1008.24
2017-08-03T06:12:25.834Z,1008.24
2017-08-03T06:13:38.162Z,1008.14
2017-08-03T06:14:50.759Z,1008.18
2017-08-03T06:16:03.042Z,1008.16
2017-08-03T06:17:15.271Z,1008.27
2017-08-03T06:18:27.938Z,1008.27
2017-08-03T06:19:40.552Z,1008.21
2017-08-03T06:20:52.858Z,1008.17
2017-08-03T06:22:05.404Z,1008.21
2017-08-03T06:23:17.992Z,1008.19
2017-08-03T06:24:30.617Z,1008.22
2017-08-03T06:25:43.261Z,1008.24
2017-08-03T06:26:55.568Z,1008.34
2017-08-03T06:28:07.532Z,1008.38
2017-08-03T06:29:19.587Z,1008.3
2017-08-03T06:30:32.170Z,1008.26
2017-08-03T06:31:44.726Z,1008.21
2017-08-03T06:32:57.339Z,1008.2
2017-08-03T06:34:09.892Z,1008.14
2017-08-03T06:35:22.209Z,1008.1
2017-08-03T06:36:34.540Z,1008.12
2017-08-03T06:37:46.777Z,1008.12
2017-08-03T06:38:58.843Z,1008.09
2017-08-03T06:40:11.166Z,1008.09
2017-08-03T06:41:23.796Z,1008.06
2017-08-03T06:42:36.382Z,1008.08
2017-08-03T06:43:48.730Z,1008.07
2017-08-03T06:45:01.033Z,1008.07
2017-08-03T06:46:13.365Z,1008.13
2017-08-03T06:47:26.004Z,1008.16
2017-08-03T06:48:38.586Z,1008.12
2017-08-03T06:49:51.170Z,1008.16
2017-08-03T06:51:03.801Z,1008.13
2017-08-03T06:52:16.386Z,1008.11
2017-08-03T06:53:28.122Z,1008.06
2017-08-03T06:54:40.709Z,1008.01
2017-08-03T06:55:52.957Z,1007.96
2017-08-03T06:57:05.521Z,1007.91
2017-08-03T06:58:18.085Z,1007.84
2017-08-03T06:59:30.751Z,1007.84
2017-08-03T07:00:43.344Z,1007.84
2017-08-03T07:01:55.373Z,1007.84
2017-08-03T07:03:07.711Z,1007.84
2017-08-03T07:04:20.333Z,1007.8
2017-08-03T07:05:32.656Z,1007.82
2017-08-03T07:06:45.238Z,1007.84
2017-08-03T07:07:57.542Z,1007.81
2017-08-03T07:09:09.762Z,1007.87
2017-08-03T07:10:22.010Z,1007.84
2017-08-03T07:11:34.628Z,1007.78
2017-08-03T07:12:46.904Z,1007.74
2017-08-03T07:13:59.503Z,1007.68
2017-08-03T07:15:12.110Z,1007.66
2017-08-03T07:16:24.655Z,1007.63
2017-08-03T07:17:37.250Z,1007.7
2017-08-03T07:18:49.208Z,1007.72
2017-08-03T07:20:01.505Z,1007.72
2017-08-03T07:21:13.785Z,1007.64
2017-08-03T07:22:26.392Z,1007.58
2017-08-03T07:23:38.992Z,1007.53
2017-08-03T07:24:50.995Z,1007.49
2017-08-03T07:26:02.723Z,1007.48
2017-08-03T07:27:15.290Z,1007.46
2017-08-03T07:28:27.863Z,1007.41
2017-08-03T07:29:40.571Z,1007.45
2017-08-03T07:30:53.131Z,1007.44
2017-08-03T07:32:05.412Z,1007.46
2017-08-03T07:33:17.748Z,1007.47
2017-08-03T07:34:30.311Z,1007.45
2017-08-03T07:35:42.651Z,1007.41
2017-08-03T07:36:55.216Z,1007.36
2017-08-03T07:38:06.620Z,1007.42
2017-08-03T07:39:18.934Z,1007.4
2017-08-03T07:40:31.531Z,1007.44
2017-08-03T07:41:43.771Z,1007.52
2017-08-03T07:42:55.723Z,1007.49
2017-08-03T07:44:07.715Z,1007.47
2017-08-03T07:45:20.233Z,1007.4
2017-08-03T07:46:32.529Z,1007.29
2017-08-03T07:47:44.811Z,1007.26
2017-08-03T07:48:57.406Z,1007.17
2017-08-03T07:50:09.380Z,1007.1
2017-08-03T07:51:21.930Z,1007.08
2017-08-03T07:52:34.547Z,1007.13
2017-08-03T07:53:47.170Z,1007.2
2017-08-03T07:54:59.734Z,1007.34
2017-08-03T07:56:11.695Z,1007.47
2017-08-03T07:57:24.241Z,1007.58
2017-08-03T07:58:37.086Z,1007.74
2017-08-03T07:59:49.059Z,1007.7
2017-08-03T08:01:01.615Z,1007.5
2017-08-03T08:02:14.235Z,1007.41
2017-08-03T08:03:26.239Z,1007.23
2017-08-03T08:04:38.511Z,1007.11
2017-08-03T08:05:50.779Z,1007.18
2017-08-03T08:07:03.099Z,1007.22
2017-08-03T08:08:15.088Z,1007.2
2017-08-03T08:09:27.694Z,1007.1
2017-08-03T08:10:40.371Z,1007.07
2017-08-03T08:11:52.653Z,1007.22
2017-08-03T08:13:04.941Z,1007.37
2017-08-03T08:14:17.494Z,1007.44
2017-08-03T08:15:29.512Z,1007.48
2017-08-03T08:16:42.120Z,1007.51
2017-08-03T08:17:54.682Z,1007.5
2017-08-03T08:19:07.282Z,1007.51
2017-08-03T08:20:19.847Z,1007.44
2017-08-03T08:21:32.474Z,1007.37
2017-08-03T08:22:44.141Z,1007.3
2017-08-03T08:23:55.809Z,1007.31
2017-08-03T08:25:07.797Z,1007.23
2017-08-03T08:26:20.056Z,1007.15
2017-08-03T08:27:32.373Z,1007.15
2017-08-03T08:28:44.293Z,1007.09
2017-08-03T08:29:56.320Z,1007.09
2017-08-03T08:31:08.962Z,1007.04
2017-08-03T08:32:21.311Z,1006.98
2017-08-03T08:33:33.869Z,1006.99
2017-08-03T08:34:46.203Z,1006.99
2017-08-03T08:35:58.204Z,1006.97
2017-08-03T08:37:10.782Z,1006.92
2017-08-03T08:38:23.360Z,1007.02
2017-08-03T08:39:35.046Z,1007.09
2017-08-03T08:40:46.777Z,1007.07
2017-08-03T08:41:59.135Z,1007.05
2017-08-03T08:43:11.773Z,1007.06
2017-08-03T08:44:24.363Z,1006.98
2017-08-03T08:45:36.986Z,1006.94
2017-08-03T08:46:49.533Z,1006.88
2017-08-03T08:48:01.779Z,1006.86
2017-08-03T08:49:14.406Z,1006.83
2017-08-03T08:50:26.737Z,1006.83
2017-08-03T08:51:39.041Z,1006.81
2017-08-03T08:52:51.572Z,1006.77
2017-08-03T08:54:04.257Z,1006.71
2017-08-03T08:55:16.821Z,1006.67
2017-08-03T08:56:29.453Z,1006.56
2017-08-03T08:57:42.081Z,1006.53
2017-08-03T08:58:54.395Z,1006.49
2017-08-03T09:00:06.988Z,1006.48
2017-08-03T09:01:19.642Z,1006.47
2017-08-03T09:02:31.971Z,1006.41
2017-08-03T09:03:43.957Z,1006.37
2017-08-03T09:04:55.920Z,1006.38
2017-08-03T09:06:07.883Z,1006.34
2017-08-03T09:07:20.163Z,1006.29
2017-08-03T09:08:32.426Z,1006.28
2017-08-03T09:09:44.970Z,1006.32
2017-08-03T09:10:57.552Z,1006.37
2017-08-03T09:12:10.174Z,1006.44
2017-08-03T09:13:22.149Z,1006.43
2017-08-03T09:14:34.811Z,1006.38
2017-08-03T09:15:47.119Z,1006.32
2017-08-03T09:16:59.391Z,1006.28
2017-08-03T09:18:11.680Z,1006.27
2017-08-03T09:19:23.983Z,1006.34
2017-08-03T09:20:35.679Z,1006.35
2017-08-03T09:21:47.944Z,1006.42
2017-08-03T09:23:00.239Z,1006.42
2017-08-03T09:24:12.809Z,1006.49
2017-08-03T09:25:25.469Z,1006.46
2017-08-03T09:26:38.083Z,1006.46
2017-08-03T09:27:50.694Z,1006.44
2017-08-03T09:29:02.954Z,1006.59
2017-08-03T09:30:15.284Z,1006.59
2017-08-03T09:31:27.535Z,1006.62
2017-08-03T09:32:40.145Z,1006.57
2017-08-03T09:33:52.383Z,1006.59
2017-08-03T09:35:04.731Z,1006.59
2017-08-03T09:36:17.307Z,1006.57
2017-08-03T09:37:29.883Z,1006.64
2017-08-03T09:38:42.212Z,1006.72
2017-08-03T09:39:54.485Z,1006.72
2017-08-03T09:41:06.815Z,1006.79
2017-08-03T09:42:19.099Z,1006.82
2017-08-03T09:43:31.645Z,1006.86
2017-08-03T09:44:44.219Z,1006.74
2017-08-03T09:45:56.533Z,1006.78
2017-08-03T09:47:08.789Z,1006.76
2017-08-03T09:48:21.400Z,1006.78
2017-08-03T09:49:33.334Z,1006.8
2017-08-03T09:50:45.599Z,1006.75
2017-08-03T09:51:57.865Z,1006.67
2017-08-03T09:53:09.587Z,1006.66
2017-08-03T09:54:22.196Z,1006.61
2017-08-03T09:55:34.791Z,1006.56
2017-08-03T09:56:46.801Z,1006.53
2017-08-03T09:57:59.077Z,1006.52
2017-08-03T09:59:11.393Z,1006.49
2017-08-03T10:00:23.710Z,1006.53
2017-08-03T10:01:36.324Z,1006.52
2017-08-03T10:02:48.926Z,1006.52
2017-08-03T10:04:00.574Z,1006.51
2017-08-03T10:05:12.869Z,1006.55
2017-08-03T10:06:25.462Z,1006.58
2017-08-03T10:07:37.787Z,1006.57
2017-08-03T10:08:50.030Z,1006.56
2017-08-03T10:10:01.666Z,1006.53
2017-08-03T10:11:13.977Z,1006.5
2017-08-03T10:12:26.600Z,1006.47
2017-08-03T10:13:39.217Z,1006.53
2017-08-03T10:14:51.791Z,1006.59
2017-08-03T10:16:04.349Z,1006.6
2017-08-03T10:17:16.867Z,1006.61
2017-08-03T10:18:29.480Z,1006.65
2017-08-03T10:19:42.097Z,1006.64
2017-08-03T10:20:54.063Z,1006.54
2017-08-03T10:22:06.289Z,1006.49
2017-08-03T10:23:18.807Z,1006.41
2017-08-03T10:24:30.813Z,1006.38
2017-08-03T10:25:43.384Z,1006.26
2017-08-03T10:26:55.421Z,1006.28
2017-08-03T10:28:07.746Z,1006.21
2017-08-03T10:29:20.047Z,1006.21
2017-08-03T10:30:32.671Z,1006.22
2017-08-03T10:31:45.026Z,1006.24
2017-08-03T10:32:57.298Z,1006.26
2017-08-03T10:34:09.551Z,1006.26
2017-08-03T10:35:22.118Z,1006.26
2017-08-03T10:36:34.438Z,1006.25
2017-08-03T10:37:46.959Z,1006.18
2017-08-03T10:38:59.534Z,1006.2
2017-08-03T10:40:11.874Z,1006.25
2017-08-03T10:41:24.422Z,1006.24
2017-08-03T10:42:36.775Z,1006.22
2017-08-03T10:43:49.129Z,1006.24
2017-08-03T10:45:01.080Z,1006.26
2017-08-03T10:46:13.370Z,1006.3
2017-08-03T10:47:25.630Z,1006.24
2017-08-03T10:48:38.162Z,1006.26
2017-08-03T10:49:50.470Z,1006.29
2017-08-03T10:51:02.512Z,1006.24
2017-08-03T10:52:14.235Z,1006.14
2017-08-03T10:53:26.897Z,1006.12
2017-08-03T10:54:39.499Z,1006.06
2017-08-03T10:55:52.070Z,1006
2017-08-03T10:57:04.067Z,1005.91
2017-08-03T10:58:16.698Z,1005.78
2017-08-03T10:59:29.059Z,1005.75
2017-08-03T11:00:41.334Z,1005.71
2017-08-03T11:01:53.949Z,1005.7
2017-08-03T11:03:06.582Z,1005.59
2017-08-03T11:04:19.183Z,1005.55
2017-08-03T11:05:31.867Z,1005.63
2017-08-03T11:06:44.083Z,1005.62
2017-08-03T11:07:56.030Z,1005.67
2017-08-03T11:09:08.365Z,1005.75
2017-08-03T11:10:20.987Z,1005.86
2017-08-03T11:11:33.253Z,1005.78
2017-08-03T11:12:45.308Z,1005.65
2017-08-03T11:13:57.882Z,1005.71
2017-08-03T11:15:10.167Z,1005.64
2017-08-03T11:16:22.759Z,1005.72
2017-08-03T11:17:35.402Z,1005.78
2017-08-03T11:18:47.368Z,1005.77
2017-08-03T11:19:59.583Z,1005.75
2017-08-03T11:21:12.212Z,1005.78
2017-08-03T11:22:24.571Z,1005.72
2017-08-03T11:23:36.575Z,1005.69
2017-08-03T11:24:49.138Z,1005.63
2017-08-03T11:26:01.444Z,1005.54
2017-08-03T11:27:14.082Z,1005.54
2017-08-03T11:28:26.741Z,1005.51
2017-08-03T11:29:39.061Z,1005.54
2017-08-03T11:30:51.343Z,1005.4
2017-08-03T11:32:03.654Z,1005.34
2017-08-03T11:33:16.308Z,1005.34
2017-08-03T11:34:28.988Z,1005.28
2017-08-03T11:35:41.304Z,1005.28
2017-08-03T11:36:53.563Z,1005.38
2017-08-03T11:38:05.531Z,1005.45
2017-08-03T11:39:18.177Z,1005.37
2017-08-03T11:40:30.848Z,1005.41
2017-08-03T11:41:43.107Z,1005.45
2017-08-03T11:42:55.337Z,1005.44
2017-08-03T11:44:07.280Z,1005.35
2017-08-03T11:45:19.546Z,1005.22
2017-08-03T11:46:32.091Z,1005.18
2017-08-03T11:47:44.444Z,1005.2
2017-08-03T11:48:57.044Z,1005.28
2017-08-03T11:50:09.347Z,1005.32
2017-08-03T11:51:21.949Z,1005.33
2017-08-03T11:52:34.203Z,1005.24
2017-08-03T11:53:46.824Z,1005.21
2017-08-03T11:54:59.350Z,1005.12
2017-08-03T11:56:11.683Z,1004.99
2017-08-03T11:57:24.279Z,1004.99
2017-08-03T11:58:36.850Z,1004.88
2017-08-03T11:59:48.845Z,1004.93
2017-08-03T12:01:00.543Z,1004.86
2017-08-03T12:02:13.119Z,1004.79
2017-08-03T12:03:25.434Z,1004.78
2017-08-03T12:04:38.036Z,1004.71
2017-08-03T12:05:50.676Z,1004.87
2017-08-03T12:07:02.936Z,1004.87
2017-08-03T12:08:15.544Z,1004.91
2017-08-03T12:09:27.852Z,1004.84
2017-08-03T12:10:40.480Z,1004.85
2017-08-03T12:11:53.146Z,1004.79
2017-08-03T12:13:05.399Z,1004.85
2017-08-03T12:14:17.981Z,1004.96
2017-08-03T12:15:30.587Z,1004.86
2017-08-03T12:16:42.914Z,1004.91
2017-08-03T12:17:55.243Z,1004.93
2017-08-03T12:19:07.782Z,1004.98
2017-08-03T12:20:19.792Z,1004.89
2017-08-03T12:21:32.459Z,1004.83
2017-08-03T12:22:45.080Z,1004.82
2017-08-03T12:23:57.623Z,1004.81
2017-08-03T12:25:09.267Z,1004.92
2017-08-03T12:26:21.813Z,1004.88
2017-08-03T12:27:34.486Z,1004.74
2017-08-03T12:28:46.173Z,1004.66
2017-08-03T12:29:58.513Z,1004.67
2017-08-03T12:31:10.533Z,1004.65
2017-08-03T12:32:23.096Z,1004.69
2017-08-03T12:33:35.390Z,1004.63
2017-08-03T12:34:47.958Z,1004.59
2017-08-03T12:36:00.267Z,1004.59
2017-08-03T12:37:12.302Z,1004.58
2017-08-03T12:38:24.309Z,1004.66
2017-08-03T12:39:36.919Z,1004.63
2017-08-03T12:40:49.390Z,1004.6
2017-08-03T12:42:01.978Z,1004.59
2017-08-03T12:43:14.257Z,1004.61
2017-08-03T12:44:26.270Z,1004.63
2017-08-03T12:45:38.598Z,1004.56
2017-08-03T12:46:51.175Z,1004.45
2017-08-03T12:48:03.459Z,1004.36
2017-08-03T12:49:15.768Z,1004.32
2017-08-03T12:50:28.424Z,1004.15
2017-08-03T12:51:40.971Z,1004.19
2017-08-03T12:52:53.291Z,1004.49
2017-08-03T12:54:05.294Z,1004.57
2017-08-03T12:55:17.928Z,1004.51
2017-08-03T12:56:30.239Z,1004.58
2017-08-03T12:57:42.235Z,1004.58
2017-08-03T12:58:54.820Z,1004.61
2017-08-03T13:00:06.788Z,1004.59
2017-08-03T13:01:19.169Z,1004.58
2017-08-03T13:02:31.502Z,1004.54
2017-08-03T13:03:44.104Z,1004.47
2017-08-03T13:04:56.036Z,1004.5
2017-08-03T13:06:08.646Z,1004.55
2017-08-03T13:07:20.701Z,1004.49
2017-08-03T13:08:32.998Z,1004.44
2017-08-03T13:09:45.523Z,1004.47
2017-08-03T13:10:57.828Z,1004.43
2017-08-03T13:12:10.139Z,1004.42
2017-08-03T13:13:22.747Z,1004.37
2017-08-03T13:14:34.676Z,1004.4
2017-08-03T13:15:47.248Z,1004.35
2017-08-03T13:16:59.528Z,1004.54
2017-08-03T13:18:11.265Z,1004.16
2017-08-03T13:19:23.887Z,1004.04
2017-08-03T13:20:36.562Z,1003.98
2017-08-03T13:21:48.853Z,1003.93
2017-08-03T13:23:01.127Z,1004.08
2017-08-03T13:24:13.418Z,1004.06
2017-08-03T13:25:26.063Z,1004.13
2017-08-03T13:26:38.659Z,1004.13
2017-08-03T13:27:51.330Z,1003.94
2017-08-03T13:29:03.607Z,1003.87
2017-08-03T13:30:16.265Z,1003.85
2017-08-03T13:31:28.310Z,1003.92
2017-08-03T13:32:40.615Z,1003.95
2017-08-03T13:33:52.853Z,1004.11
2017-08-03T13:35:05.124Z,1004
2017-08-03T13:36:17.140Z,1004.01
2017-08-03T13:37:29.690Z,1003.85
2017-08-03T13:38:41.944Z,1003.84
2017-08-03T13:39:54.569Z,1003.8
2017-08-03T13:41:06.577Z,1003.87
2017-08-03T13:42:18.832Z,1003.8
2017-08-03T13:43:31.163Z,1003.74
2017-08-03T13:44:43.823Z,1003.78
2017-08-03T13:45:56.123Z,1003.78
2017-08-03T13:47:08.451Z,1003.82
2017-08-03T13:48:21.109Z,1003.76
2017-08-03T13:49:33.735Z,1003.68
2017-08-03T13:50:45.698Z,1003.59
2017-08-03T13:51:57.942Z,1003.55
2017-08-03T13:53:09.624Z,1003.5
2017-08-03T13:54:21.658Z,1003.4
2017-08-03T13:55:34.214Z,1003.44
2017-08-03T13:56:46.499Z,1003.38
2017-08-03T13:57:58.535Z,1003.29
2017-08-03T13:59:11.136Z,1003.22
2017-08-03T14:00:23.764Z,1003.15
2017-08-03T14:01:36.077Z,1003.21
2017-08-03T14:02:48.393Z,1003.14
2017-08-03T14:04:00.725Z,1003.04
2017-08-03T14:05:13.270Z,1003.19
2017-08-03T14:06:25.552Z,1003.11
2017-08-03T14:07:38.139Z,1003.09
2017-08-03T14:08:50.771Z,1003.07
2017-08-03T14:10:03.094Z,1003.13
2017-08-03T14:11:15.407Z,1003.19
2017-08-03T14:12:28.066Z,1002.99
2017-08-03T14:13:40.641Z,1003.03
2017-08-03T14:14:52.672Z,1003.01
2017-08-03T14:16:04.895Z,1002.99
2017-08-03T14:17:17.523Z,1003.1
2017-08-03T14:18:30.441Z,1003
2017-08-03T14:19:42.191Z,1003
2017-08-03T14:20:54.535Z,1002.95
2017-08-03T14:22:06.799Z,1002.91
2017-08-03T14:23:19.121Z,1002.86
2017-08-03T14:24:31.443Z,1003.02
2017-08-03T14:25:44.040Z,1003.01
2017-08-03T14:26:56.362Z,1002.95
2017-08-03T14:28:08.330Z,1002.87
2017-08-03T14:29:20.645Z,1002.85
2017-08-03T14:30:33.243Z,1002.85
2017-08-03T14:31:45.788Z,1002.8
2017-08-03T14:32:58.402Z,1002.84
2017-08-03T14:34:10.648Z,1002.81
2017-08-03T14:35:23.286Z,1002.88
2017-08-03T14:36:35.652Z,1002.87
2017-08-03T14:37:48.031Z,1002.81
2017-08-03T14:39:00.632Z,1002.84